sensor_id;sensor_type;location;lat;lon;timestamp;temperature;humidity
51029;DHT22;37054;52.054;8.600;2023-11-21T00:00:44;12.30;71.10
51029;DHT22;37054;52.054;8.600;2023-11-21T00:03:11;12.30;71.00
51029;DHT22;37054;52.054;8.600;2023-11-21T00:05:40;12.40;71.10
51029;DHT22;37054;52.054;8.600;2023-11-21T00:08:06;12.40;71.10
51029;DHT22;37054;52.054;8.600;2023-11-21T00:10:32;12.40;71.10
51029;DHT22;37054;52.054;8.600;2023-11-21T00:12:58;12.50;71.20
51029;DHT22;37054;52.054;8.600;2023-11-21T00:15:23;12.60;71.20
51029;DHT22;37054;52.054;8.600;2023-11-21T00:17:49;12.60;71.20
51029;DHT22;37054;52.054;8.600;2023-11-21T00:20:15;12.70;71.20
51029;DHT22;37054;52.054;8.600;2023-11-21T00:22:40;12.70;71.10
51029;DHT22;37054;52.054;8.600;2023-11-21T00:25:06;12.70;71.10
51029;DHT22;37054;52.054;8.600;2023-11-21T00:27:34;12.70;71.10
51029;DHT22;37054;52.054;8.600;2023-11-21T00:30:00;12.70;71.10
51029;DHT22;37054;52.054;8.600;2023-11-21T00:32:26;12.80;71.20
51029;DHT22;37054;52.054;8.600;2023-11-21T00:34:51;12.80;71.00
51029;DHT22;37054;52.054;8.600;2023-11-21T00:37:17;12.80;71.00
51029;DHT22;37054;52.054;8.600;2023-11-21T00:39:42;12.90;71.10
51029;DHT22;37054;52.054;8.600;2023-11-21T00:42:08;12.90;71.00
51029;DHT22;37054;52.054;8.600;2023-11-21T00:44:34;12.90;71.00
51029;DHT22;37054;52.054;8.600;2023-11-21T00:47:00;12.90;71.00
51029;DHT22;37054;52.054;8.600;2023-11-21T00:49:25;12.90;71.10
51029;DHT22;37054;52.054;8.600;2023-11-21T00:51:51;12.90;71.10
51029;DHT22;37054;52.054;8.600;2023-11-21T00:54:16;13.00;71.00
51029;DHT22;37054;52.054;8.600;2023-11-21T00:56:45;13.00;71.10
51029;DHT22;37054;52.054;8.600;2023-11-21T00:59:12;13.00;71.20
51029;DHT22;37054;52.054;8.600;2023-11-21T01:01:38;13.00;71.10
51029;DHT22;37054;52.054;8.600;2023-11-21T01:04:04;13.00;71.10
51029;DHT22;37054;52.054;8.600;2023-11-21T01:06:30;13.10;71.10
51029;DHT22;37054;52.054;8.600;2023-11-21T01:08:55;13.10;71.20
51029;DHT22;37054;52.054;8.600;2023-11-21T01:11:21;13.20;71.30
51029;DHT22;37054;52.054;8.600;2023-11-21T01:13:46;13.20;71.20
51029;DHT22;37054;52.054;8.600;2023-11-21T01:16:12;13.20;71.20
51029;DHT22;37054;52.054;8.600;2023-11-21T01:18:37;13.20;71.20
51029;DHT22;37054;52.054;8.600;2023-11-21T01:21:03;13.30;71.20
51029;DHT22;37054;52.054;8.600;2023-11-21T01:23:29;13.30;71.10
51029;DHT22;37054;52.054;8.600;2023-11-21T01:25:56;13.30;70.70
51029;DHT22;37054;52.054;8.600;2023-11-21T01:28:22;13.30;70.50
51029;DHT22;37054;52.054;8.600;2023-11-21T01:30:48;13.30;70.70
51029;DHT22;37054;52.054;8.600;2023-11-21T01:33:14;13.20;70.70
51029;DHT22;37054;52.054;8.600;2023-11-21T01:35:41;13.20;70.90
51029;DHT22;37054;52.054;8.600;2023-11-21T01:38:06;13.20;71.00
51029;DHT22;37054;52.054;8.600;2023-11-21T01:40:34;13.20;71.00
51029;DHT22;37054;52.054;8.600;2023-11-21T01:43:00;13.20;70.80
51029;DHT22;37054;52.054;8.600;2023-11-21T01:45:25;13.20;70.80
51029;DHT22;37054;52.054;8.600;2023-11-21T01:47:51;13.20;70.90
51029;DHT22;37054;52.054;8.600;2023-11-21T01:50:17;13.20;71.00
51029;DHT22;37054;52.054;8.600;2023-11-21T01:52:45;13.20;71.00
51029;DHT22;37054;52.054;8.600;2023-11-21T01:55:11;13.20;71.00
51029;DHT22;37054;52.054;8.600;2023-11-21T01:57:39;13.30;71.00
51029;DHT22;37054;52.054;8.600;2023-11-21T02:00:07;13.30;71.00
51029;DHT22;37054;52.054;8.600;2023-11-21T02:02:43;13.30;70.80
51029;DHT22;37054;52.054;8.600;2023-11-21T02:05:19;13.30;70.90
51029;DHT22;37054;52.054;8.600;2023-11-21T02:07:47;13.30;71.00
51029;DHT22;37054;52.054;8.600;2023-11-21T02:10:18;13.30;71.00
51029;DHT22;37054;52.054;8.600;2023-11-21T02:12:48;13.30;71.10
51029;DHT22;37054;52.054;8.600;2023-11-21T02:15:16;13.40;71.00
51029;DHT22;37054;52.054;8.600;2023-11-21T02:17:52;13.30;70.80
51029;DHT22;37054;52.054;8.600;2023-11-21T02:20:19;13.30;70.60
51029;DHT22;37054;52.054;8.600;2023-11-21T02:22:56;13.30;70.80
51029;DHT22;37054;52.054;8.600;2023-11-21T02:25:33;13.30;70.90
51029;DHT22;37054;52.054;8.600;2023-11-21T02:28:01;13.30;70.90
51029;DHT22;37054;52.054;8.600;2023-11-21T02:30:27;13.30;70.90
51029;DHT22;37054;52.054;8.600;2023-11-21T02:32:54;13.40;71.00
51029;DHT22;37054;52.054;8.600;2023-11-21T02:35:20;13.40;71.00
51029;DHT22;37054;52.054;8.600;2023-11-21T02:37:52;13.40;70.90
51029;DHT22;37054;52.054;8.600;2023-11-21T02:40:17;13.50;70.80
51029;DHT22;37054;52.054;8.600;2023-11-21T02:42:49;13.40;70.80
51029;DHT22;37054;52.054;8.600;2023-11-21T02:45:17;13.40;70.90
51029;DHT22;37054;52.054;8.600;2023-11-21T02:47:43;13.50;71.00
51029;DHT22;37054;52.054;8.600;2023-11-21T02:50:09;13.50;71.00
51029;DHT22;37054;52.054;8.600;2023-11-21T02:52:35;13.50;70.90
51029;DHT22;37054;52.054;8.600;2023-11-21T02:55:02;13.50;70.90
51029;DHT22;37054;52.054;8.600;2023-11-21T02:57:28;13.50;70.90
51029;DHT22;37054;52.054;8.600;2023-11-21T02:59:54;13.50;70.90
51029;DHT22;37054;52.054;8.600;2023-11-21T03:02:20;13.60;70.90
51029;DHT22;37054;52.054;8.600;2023-11-21T03:04:45;13.60;70.80
51029;DHT22;37054;52.054;8.600;2023-11-21T03:07:11;13.60;70.70
51029;DHT22;37054;52.054;8.600;2023-11-21T03:09:36;13.70;70.90
51029;DHT22;37054;52.054;8.600;2023-11-21T03:12:02;13.70;70.80
51029;DHT22;37054;52.054;8.600;2023-11-21T03:14:27;13.70;70.70
51029;DHT22;37054;52.054;8.600;2023-11-21T03:16:53;13.60;70.80
51029;DHT22;37054;52.054;8.600;2023-11-21T03:19:18;13.60;70.80
51029;DHT22;37054;52.054;8.600;2023-11-21T03:21:44;13.70;70.70
51029;DHT22;37054;52.054;8.600;2023-11-21T03:24:10;13.70;70.80
51029;DHT22;37054;52.054;8.600;2023-11-21T03:26:35;13.70;70.80
51029;DHT22;37054;52.054;8.600;2023-11-21T03:29:02;13.70;70.80
51029;DHT22;37054;52.054;8.600;2023-11-21T03:31:28;13.70;70.70
51029;DHT22;37054;52.054;8.600;2023-11-21T03:33:53;13.70;70.60
51029;DHT22;37054;52.054;8.600;2023-11-21T03:36:19;13.70;70.60
51029;DHT22;37054;52.054;8.600;2023-11-21T03:38:45;13.70;70.70
51029;DHT22;37054;52.054;8.600;2023-11-21T03:41:11;13.70;70.80
51029;DHT22;37054;52.054;8.600;2023-11-21T03:43:37;13.70;70.80
51029;DHT22;37054;52.054;8.600;2023-11-21T03:46:03;13.70;70.80
51029;DHT22;37054;52.054;8.600;2023-11-21T03:48:29;13.80;70.80
51029;DHT22;37054;52.054;8.600;2023-11-21T03:50:57;13.80;70.80
51029;DHT22;37054;52.054;8.600;2023-11-21T03:53:23;13.80;70.80
51029;DHT22;37054;52.054;8.600;2023-11-21T03:55:48;13.80;70.70
51029;DHT22;37054;52.054;8.600;2023-11-21T03:58:15;13.80;70.70
51029;DHT22;37054;52.054;8.600;2023-11-21T04:00:40;13.80;70.70
51029;DHT22;37054;52.054;8.600;2023-11-21T04:03:06;13.80;70.50
51029;DHT22;37054;52.054;8.600;2023-11-21T04:05:32;13.80;70.40
51029;DHT22;37054;52.054;8.600;2023-11-21T04:07:57;13.80;70.40
51029;DHT22;37054;52.054;8.600;2023-11-21T04:10:23;13.70;70.40
51029;DHT22;37054;52.054;8.600;2023-11-21T04:12:49;13.70;70.40
51029;DHT22;37054;52.054;8.600;2023-11-21T04:15:14;13.70;70.40
51029;DHT22;37054;52.054;8.600;2023-11-21T04:17:41;13.70;70.30
51029;DHT22;37054;52.054;8.600;2023-11-21T04:20:07;13.70;70.40
51029;DHT22;37054;52.054;8.600;2023-11-21T04:22:44;13.60;70.20
51029;DHT22;37054;52.054;8.600;2023-11-21T04:25:10;13.60;70.20
51029;DHT22;37054;52.054;8.600;2023-11-21T04:27:39;13.60;70.30
51029;DHT22;37054;52.054;8.600;2023-11-21T04:30:06;13.60;70.20
51029;DHT22;37054;52.054;8.600;2023-11-21T04:32:32;13.60;70.20
51029;DHT22;37054;52.054;8.600;2023-11-21T04:34:57;13.50;70.30
51029;DHT22;37054;52.054;8.600;2023-11-21T04:37:23;13.50;70.20
51029;DHT22;37054;52.054;8.600;2023-11-21T04:39:49;13.50;70.30
51029;DHT22;37054;52.054;8.600;2023-11-21T04:42:15;13.50;70.20
51029;DHT22;37054;52.054;8.600;2023-11-21T04:44:40;13.50;70.30
51029;DHT22;37054;52.054;8.600;2023-11-21T04:47:06;13.50;70.30
51029;DHT22;37054;52.054;8.600;2023-11-21T04:49:33;13.50;70.30
51029;DHT22;37054;52.054;8.600;2023-11-21T04:51:58;13.50;70.30
51029;DHT22;37054;52.054;8.600;2023-11-21T04:54:24;13.50;70.30
51029;DHT22;37054;52.054;8.600;2023-11-21T04:56:50;13.50;70.40
51029;DHT22;37054;52.054;8.600;2023-11-21T04:59:15;13.60;70.40
51029;DHT22;37054;52.054;8.600;2023-11-21T05:01:41;13.60;70.40
51029;DHT22;37054;52.054;8.600;2023-11-21T05:04:06;13.60;70.40
51029;DHT22;37054;52.054;8.600;2023-11-21T05:06:34;13.60;70.40
51029;DHT22;37054;52.054;8.600;2023-11-21T05:08:59;13.60;70.30
51029;DHT22;37054;52.054;8.600;2023-11-21T05:11:28;13.50;70.20
51029;DHT22;37054;52.054;8.600;2023-11-21T05:13:57;13.50;70.10
51029;DHT22;37054;52.054;8.600;2023-11-21T05:16:25;13.50;70.10
51029;DHT22;37054;52.054;8.600;2023-11-21T05:18:53;13.50;70.00
51029;DHT22;37054;52.054;8.600;2023-11-21T05:21:18;13.40;70.00
51029;DHT22;37054;52.054;8.600;2023-11-21T05:23:46;13.40;70.10
51029;DHT22;37054;52.054;8.600;2023-11-21T05:26:11;13.40;70.10
51029;DHT22;37054;52.054;8.600;2023-11-21T05:28:37;13.40;70.20
51029;DHT22;37054;52.054;8.600;2023-11-21T05:31:02;13.40;70.20
51029;DHT22;37054;52.054;8.600;2023-11-21T05:33:28;13.30;70.30
51029;DHT22;37054;52.054;8.600;2023-11-21T05:35:53;13.40;70.30
51029;DHT22;37054;52.054;8.600;2023-11-21T05:38:19;13.30;70.30
51029;DHT22;37054;52.054;8.600;2023-11-21T05:40:47;13.30;70.30
51029;DHT22;37054;52.054;8.600;2023-11-21T05:43:13;13.30;70.30
51029;DHT22;37054;52.054;8.600;2023-11-21T05:45:38;13.40;70.30
51029;DHT22;37054;52.054;8.600;2023-11-21T05:48:04;13.30;70.40
51029;DHT22;37054;52.054;8.600;2023-11-21T05:50:30;13.40;70.30
51029;DHT22;37054;52.054;8.600;2023-11-21T05:52:56;13.40;70.30
51029;DHT22;37054;52.054;8.600;2023-11-21T05:55:23;13.40;70.40
51029;DHT22;37054;52.054;8.600;2023-11-21T05:57:51;13.40;70.30
51029;DHT22;37054;52.054;8.600;2023-11-21T06:00:16;13.40;70.30
51029;DHT22;37054;52.054;8.600;2023-11-21T06:02:51;13.40;70.30
51029;DHT22;37054;52.054;8.600;2023-11-21T06:05:22;13.40;70.30
51029;DHT22;37054;52.054;8.600;2023-11-21T06:07:49;13.40;70.40
51029;DHT22;37054;52.054;8.600;2023-11-21T06:10:15;13.40;70.40
51029;DHT22;37054;52.054;8.600;2023-11-21T06:12:43;13.40;70.40
51029;DHT22;37054;52.054;8.600;2023-11-21T06:15:10;13.40;70.50
51029;DHT22;37054;52.054;8.600;2023-11-21T06:17:39;13.50;70.50
51029;DHT22;37054;52.054;8.600;2023-11-21T06:20:06;13.50;70.50
51029;DHT22;37054;52.054;8.600;2023-11-21T06:22:38;13.40;70.50
51029;DHT22;37054;52.054;8.600;2023-11-21T06:25:05;13.50;70.60
51029;DHT22;37054;52.054;8.600;2023-11-21T06:27:36;13.50;70.70
51029;DHT22;37054;52.054;8.600;2023-11-21T06:30:02;13.50;70.70
51029;DHT22;37054;52.054;8.600;2023-11-21T06:32:29;13.60;70.70
51029;DHT22;37054;52.054;8.600;2023-11-21T06:34:57;13.60;70.70
51029;DHT22;37054;52.054;8.600;2023-11-21T06:37:27;13.60;70.70
51029;DHT22;37054;52.054;8.600;2023-11-21T06:39:53;13.70;70.60
51029;DHT22;37054;52.054;8.600;2023-11-21T06:42:19;13.60;70.60
51029;DHT22;37054;52.054;8.600;2023-11-21T06:44:48;13.60;70.50
51029;DHT22;37054;52.054;8.600;2023-11-21T06:47:14;13.50;70.50
51029;DHT22;37054;52.054;8.600;2023-11-21T06:49:42;13.50;70.40
51029;DHT22;37054;52.054;8.600;2023-11-21T06:52:07;13.50;70.50
51029;DHT22;37054;52.054;8.600;2023-11-21T06:54:33;13.50;70.60
51029;DHT22;37054;52.054;8.600;2023-11-21T06:57:00;13.50;70.70
51029;DHT22;37054;52.054;8.600;2023-11-21T06:59:25;13.50;70.70
51029;DHT22;37054;52.054;8.600;2023-11-21T07:01:51;13.60;70.80
51029;DHT22;37054;52.054;8.600;2023-11-21T07:04:16;13.60;70.80
51029;DHT22;37054;52.054;8.600;2023-11-21T07:06:43;13.60;70.90
51029;DHT22;37054;52.054;8.600;2023-11-21T07:09:09;13.70;70.80
51029;DHT22;37054;52.054;8.600;2023-11-21T07:11:37;13.70;70.80
51029;DHT22;37054;52.054;8.600;2023-11-21T07:14:03;13.70;70.80
51029;DHT22;37054;52.054;8.600;2023-11-21T07:16:34;13.70;70.80
51029;DHT22;37054;52.054;8.600;2023-11-21T07:19:00;13.70;70.90
51029;DHT22;37054;52.054;8.600;2023-11-21T07:21:25;13.80;70.90
51029;DHT22;37054;52.054;8.600;2023-11-21T07:23:51;13.80;70.90
51029;DHT22;37054;52.054;8.600;2023-11-21T07:26:17;13.80;70.80
51029;DHT22;37054;52.054;8.600;2023-11-21T07:28:42;13.80;70.70
51029;DHT22;37054;52.054;8.600;2023-11-21T07:31:08;13.80;70.50
51029;DHT22;37054;52.054;8.600;2023-11-21T07:33:33;13.80;70.60
51029;DHT22;37054;52.054;8.600;2023-11-21T07:35:59;13.80;70.50
51029;DHT22;37054;52.054;8.600;2023-11-21T07:38:24;13.70;70.30
51029;DHT22;37054;52.054;8.600;2023-11-21T07:40:50;13.80;70.50
51029;DHT22;37054;52.054;8.600;2023-11-21T07:43:15;13.70;70.40
51029;DHT22;37054;52.054;8.600;2023-11-21T07:45:41;13.60;70.40
51029;DHT22;37054;52.054;8.600;2023-11-21T07:48:07;13.60;70.50
51029;DHT22;37054;52.054;8.600;2023-11-21T07:50:32;13.60;70.70
51029;DHT22;37054;52.054;8.600;2023-11-21T07:52:58;13.60;70.70
51029;DHT22;37054;52.054;8.600;2023-11-21T07:55:24;13.60;70.80
51029;DHT22;37054;52.054;8.600;2023-11-21T07:57:50;13.50;70.80
51029;DHT22;37054;52.054;8.600;2023-11-21T08:00:16;13.50;70.80
51029;DHT22;37054;52.054;8.600;2023-11-21T08:02:42;13.50;70.70
51029;DHT22;37054;52.054;8.600;2023-11-21T08:05:08;13.50;70.90
51029;DHT22;37054;52.054;8.600;2023-11-21T08:07:34;13.50;71.00
51029;DHT22;37054;52.054;8.600;2023-11-21T08:10:00;13.50;71.10
51029;DHT22;37054;52.054;8.600;2023-11-21T08:12:25;13.50;70.90
51029;DHT22;37054;52.054;8.600;2023-11-21T08:14:53;13.50;71.00
51029;DHT22;37054;52.054;8.600;2023-11-21T08:17:18;13.50;71.20
51029;DHT22;37054;52.054;8.600;2023-11-21T08:19:45;13.50;71.30
51029;DHT22;37054;52.054;8.600;2023-11-21T08:22:17;13.50;71.20
51029;DHT22;37054;52.054;8.600;2023-11-21T08:24:46;13.50;71.10
51029;DHT22;37054;52.054;8.600;2023-11-21T08:27:12;13.40;71.00
51029;DHT22;37054;52.054;8.600;2023-11-21T08:29:41;13.40;71.30
51029;DHT22;37054;52.054;8.600;2023-11-21T08:32:07;13.40;71.50
51029;DHT22;37054;52.054;8.600;2023-11-21T08:34:32;13.40;71.50
51029;DHT22;37054;52.054;8.600;2023-11-21T08:36:58;13.40;71.50
51029;DHT22;37054;52.054;8.600;2023-11-21T08:39:24;13.50;71.50
51029;DHT22;37054;52.054;8.600;2023-11-21T08:41:50;13.50;71.60
51029;DHT22;37054;52.054;8.600;2023-11-21T08:44:16;13.50;71.60
51029;DHT22;37054;52.054;8.600;2023-11-21T08:46:46;13.50;71.70
51029;DHT22;37054;52.054;8.600;2023-11-21T08:49:12;13.50;71.60
51029;DHT22;37054;52.054;8.600;2023-11-21T08:51:38;13.50;71.60
51029;DHT22;37054;52.054;8.600;2023-11-21T08:54:04;13.50;71.70
51029;DHT22;37054;52.054;8.600;2023-11-21T08:56:36;13.50;71.60
51029;DHT22;37054;52.054;8.600;2023-11-21T08:59:01;13.50;71.60
51029;DHT22;37054;52.054;8.600;2023-11-21T09:01:28;13.40;71.70
51029;DHT22;37054;52.054;8.600;2023-11-21T09:03:57;13.50;71.90
51029;DHT22;37054;52.054;8.600;2023-11-21T09:06:23;13.50;71.60
51029;DHT22;37054;52.054;8.600;2023-11-21T09:08:48;13.50;71.50
51029;DHT22;37054;52.054;8.600;2023-11-21T09:11:14;13.40;71.30
51029;DHT22;37054;52.054;8.600;2023-11-21T09:13:39;13.40;71.30
51029;DHT22;37054;52.054;8.600;2023-11-21T09:16:05;13.30;71.40
51029;DHT22;37054;52.054;8.600;2023-11-21T09:18:31;13.30;71.50
51029;DHT22;37054;52.054;8.600;2023-11-21T09:20:56;13.30;71.60
51029;DHT22;37054;52.054;8.600;2023-11-21T09:23:22;13.30;71.30
51029;DHT22;37054;52.054;8.600;2023-11-21T09:25:47;13.20;71.20
51029;DHT22;37054;52.054;8.600;2023-11-21T09:28:15;13.20;71.20
51029;DHT22;37054;52.054;8.600;2023-11-21T09:30:42;13.20;71.00
51029;DHT22;37054;52.054;8.600;2023-11-21T09:33:09;13.20;71.10
51029;DHT22;37054;52.054;8.600;2023-11-21T09:35:37;13.20;71.10
51029;DHT22;37054;52.054;8.600;2023-11-21T09:38:03;13.20;71.10
51029;DHT22;37054;52.054;8.600;2023-11-21T09:40:31;13.20;71.40
51029;DHT22;37054;52.054;8.600;2023-11-21T09:42:57;13.20;71.00
51029;DHT22;37054;52.054;8.600;2023-11-21T09:45:35;13.20;71.20
51029;DHT22;37054;52.054;8.600;2023-11-21T09:48:00;13.20;71.40
51029;DHT22;37054;52.054;8.600;2023-11-21T09:50:27;13.20;71.20
51029;DHT22;37054;52.054;8.600;2023-11-21T09:52:55;13.30;71.20
51029;DHT22;37054;52.054;8.600;2023-11-21T09:55:25;13.20;71.00
51029;DHT22;37054;52.054;8.600;2023-11-21T09:57:53;13.20;70.90
51029;DHT22;37054;52.054;8.600;2023-11-21T10:00:20;13.10;71.00
51029;DHT22;37054;52.054;8.600;2023-11-21T10:02:49;13.10;71.00
51029;DHT22;37054;52.054;8.600;2023-11-21T10:05:15;13.00;71.20
51029;DHT22;37054;52.054;8.600;2023-11-21T10:07:43;13.00;71.20
51029;DHT22;37054;52.054;8.600;2023-11-21T10:10:10;13.00;71.40
51029;DHT22;37054;52.054;8.600;2023-11-21T10:12:36;13.00;71.20
51029;DHT22;37054;52.054;8.600;2023-11-21T10:15:07;13.00;71.10
51029;DHT22;37054;52.054;8.600;2023-11-21T10:17:35;12.90;71.40
51029;DHT22;37054;52.054;8.600;2023-11-21T10:20:09;12.90;71.30
51029;DHT22;37054;52.054;8.600;2023-11-21T10:22:42;12.90;71.60
51029;DHT22;37054;52.054;8.600;2023-11-21T10:25:08;13.00;71.80
51029;DHT22;37054;52.054;8.600;2023-11-21T10:27:37;13.00;71.40
51029;DHT22;37054;52.054;8.600;2023-11-21T10:30:09;12.90;71.30
51029;DHT22;37054;52.054;8.600;2023-11-21T10:32:41;12.90;71.60
51029;DHT22;37054;52.054;8.600;2023-11-21T10:35:07;12.90;71.60
51029;DHT22;37054;52.054;8.600;2023-11-21T10:37:39;12.90;71.50
51029;DHT22;37054;52.054;8.600;2023-11-21T10:40:11;12.80;71.40
51029;DHT22;37054;52.054;8.600;2023-11-21T10:42:40;12.80;71.30
51029;DHT22;37054;52.054;8.600;2023-11-21T10:45:06;12.80;71.30
51029;DHT22;37054;52.054;8.600;2023-11-21T10:47:41;12.80;71.20
51029;DHT22;37054;52.054;8.600;2023-11-21T10:50:07;12.80;71.30
51029;DHT22;37054;52.054;8.600;2023-11-21T10:52:45;12.70;71.50
51029;DHT22;37054;52.054;8.600;2023-11-21T10:55:21;12.70;71.50
51029;DHT22;37054;52.054;8.600;2023-11-21T10:57:52;12.70;71.60
51029;DHT22;37054;52.054;8.600;2023-11-21T11:00:19;12.70;71.70
51029;DHT22;37054;52.054;8.600;2023-11-21T11:02:54;12.80;71.40
51029;DHT22;37054;52.054;8.600;2023-11-21T11:05:22;12.80;71.40
51029;DHT22;37054;52.054;8.600;2023-11-21T11:07:50;12.80;70.90
51029;DHT22;37054;52.054;8.600;2023-11-21T11:10:22;12.80;70.80
51029;DHT22;37054;52.054;8.600;2023-11-21T11:12:51;12.80;71.00
51029;DHT22;37054;52.054;8.600;2023-11-21T11:15:18;12.80;71.00
51029;DHT22;37054;52.054;8.600;2023-11-21T11:17:45;12.80;71.10
51029;DHT22;37054;52.054;8.600;2023-11-21T11:20:14;12.80;70.90
51029;DHT22;37054;52.054;8.600;2023-11-21T11:22:44;12.80;70.20
51029;DHT22;37054;52.054;8.600;2023-11-21T11:25:17;12.70;70.10
51029;DHT22;37054;52.054;8.600;2023-11-21T11:28:14;12.70;70.00
51029;DHT22;37054;52.054;8.600;2023-11-21T11:36:10;12.60;70.50
51029;DHT22;37054;52.054;8.600;2023-11-21T11:38:38;12.70;70.80
51029;DHT22;37054;52.054;8.600;2023-11-21T11:41:06;12.80;71.10
51029;DHT22;37054;52.054;8.600;2023-11-21T11:43:32;12.90;71.30
51029;DHT22;37054;52.054;8.600;2023-11-21T11:46:01;13.00;70.80
51029;DHT22;37054;52.054;8.600;2023-11-21T11:48:29;13.00;70.30
51029;DHT22;37054;52.054;8.600;2023-11-21T11:51:01;13.00;69.90
51029;DHT22;37054;52.054;8.600;2023-11-21T11:53:35;13.00;69.70
51029;DHT22;37054;52.054;8.600;2023-11-21T11:56:22;12.90;69.90
51029;DHT22;37054;52.054;8.600;2023-11-21T11:58:57;12.90;69.80
51029;DHT22;37054;52.054;8.600;2023-11-21T12:01:24;12.80;69.20
51029;DHT22;37054;52.054;8.600;2023-11-21T12:06:51;12.80;69.90
51029;DHT22;37054;52.054;8.600;2023-11-21T12:09:22;12.80;69.90
51029;DHT22;37054;52.054;8.600;2023-11-21T12:11:48;12.80;70.10
51029;DHT22;37054;52.054;8.600;2023-11-21T12:14:15;12.80;69.90
51029;DHT22;37054;52.054;8.600;2023-11-21T12:16:41;12.70;69.80
51029;DHT22;37054;52.054;8.600;2023-11-21T12:19:09;12.70;69.50
51029;DHT22;37054;52.054;8.600;2023-11-21T12:21:36;12.70;69.20
51029;DHT22;37054;52.054;8.600;2023-11-21T12:24:01;12.70;69.50
51029;DHT22;37054;52.054;8.600;2023-11-21T12:26:28;12.70;68.90
51029;DHT22;37054;52.054;8.600;2023-11-21T12:28:54;12.60;68.30
51029;DHT22;37054;52.054;8.600;2023-11-21T12:31:25;12.50;68.30
51029;DHT22;37054;52.054;8.600;2023-11-21T12:33:50;12.50;68.30
51029;DHT22;37054;52.054;8.600;2023-11-21T12:36:16;12.50;68.00
51029;DHT22;37054;52.054;8.600;2023-11-21T12:38:42;12.40;68.00
51029;DHT22;37054;52.054;8.600;2023-11-21T12:41:09;12.40;68.50
51029;DHT22;37054;52.054;8.600;2023-11-21T12:43:35;12.40;68.50
51029;DHT22;37054;52.054;8.600;2023-11-21T12:46:08;12.40;68.90
51029;DHT22;37054;52.054;8.600;2023-11-21T12:48:43;12.40;69.40
51029;DHT22;37054;52.054;8.600;2023-11-21T12:51:10;12.50;69.50
51029;DHT22;37054;52.054;8.600;2023-11-21T12:53:44;12.60;69.70
51029;DHT22;37054;52.054;8.600;2023-11-21T12:56:11;12.60;69.80
51029;DHT22;37054;52.054;8.600;2023-11-21T12:58:38;12.60;69.40
51029;DHT22;37054;52.054;8.600;2023-11-21T13:01:05;12.60;69.20
51029;DHT22;37054;52.054;8.600;2023-11-21T13:03:37;12.60;69.10
51029;DHT22;37054;52.054;8.600;2023-11-21T13:06:04;12.60;68.60
51029;DHT22;37054;52.054;8.600;2023-11-21T13:08:30;12.60;68.80
51029;DHT22;37054;52.054;8.600;2023-11-21T13:10:58;12.60;69.40
51029;DHT22;37054;52.054;8.600;2023-11-21T13:13:25;12.70;69.50
51029;DHT22;37054;52.054;8.600;2023-11-21T13:15:53;12.70;69.50
51029;DHT22;37054;52.054;8.600;2023-11-21T13:18:22;12.70;69.70
51029;DHT22;37054;52.054;8.600;2023-11-21T13:20:48;12.80;69.60
51029;DHT22;37054;52.054;8.600;2023-11-21T13:23:15;12.80;68.90
51029;DHT22;37054;52.054;8.600;2023-11-21T13:25:42;12.90;68.80
51029;DHT22;37054;52.054;8.600;2023-11-21T13:28:11;12.80;68.90
51029;DHT22;37054;52.054;8.600;2023-11-21T13:30:36;12.90;68.10
51029;DHT22;37054;52.054;8.600;2023-11-21T13:33:03;12.80;67.70
51029;DHT22;37054;52.054;8.600;2023-11-21T13:35:36;12.80;67.60
51029;DHT22;37054;52.054;8.600;2023-11-21T13:38:14;12.80;67.90
51029;DHT22;37054;52.054;8.600;2023-11-21T13:40:41;12.80;68.10
51029;DHT22;37054;52.054;8.600;2023-11-21T13:43:18;12.80;68.50
51029;DHT22;37054;52.054;8.600;2023-11-21T13:45:46;12.70;69.00
51029;DHT22;37054;52.054;8.600;2023-11-21T13:48:13;12.80;69.30
51029;DHT22;37054;52.054;8.600;2023-11-21T13:50:43;12.80;68.60
51029;DHT22;37054;52.054;8.600;2023-11-21T13:53:23;12.80;68.80
51029;DHT22;37054;52.054;8.600;2023-11-21T13:55:50;12.80;68.70
51029;DHT22;37054;52.054;8.600;2023-11-21T13:58:16;12.80;68.00
51029;DHT22;37054;52.054;8.600;2023-11-21T14:00:49;12.80;68.20
51029;DHT22;37054;52.054;8.600;2023-11-21T14:03:22;12.70;67.50
51029;DHT22;37054;52.054;8.600;2023-11-21T14:05:48;12.80;68.30
51029;DHT22;37054;52.054;8.600;2023-11-21T14:08:22;12.70;67.90
51029;DHT22;37054;52.054;8.600;2023-11-21T14:10:54;12.70;67.90
51029;DHT22;37054;52.054;8.600;2023-11-21T14:13:23;12.70;67.90
51029;DHT22;37054;52.054;8.600;2023-11-21T14:15:50;12.60;68.10
51029;DHT22;37054;52.054;8.600;2023-11-21T14:18:19;12.60;68.20
51029;DHT22;37054;52.054;8.600;2023-11-21T14:20:52;12.60;66.60
51029;DHT22;37054;52.054;8.600;2023-11-21T14:23:18;12.50;67.50
51029;DHT22;37054;52.054;8.600;2023-11-21T14:25:43;12.50;67.20
51029;DHT22;37054;52.054;8.600;2023-11-21T14:28:09;12.50;67.10
51029;DHT22;37054;52.054;8.600;2023-11-21T14:30:37;12.50;67.30
51029;DHT22;37054;52.054;8.600;2023-11-21T14:33:05;12.40;67.20
51029;DHT22;37054;52.054;8.600;2023-11-21T14:35:31;12.40;67.00
51029;DHT22;37054;52.054;8.600;2023-11-21T14:37:58;12.30;66.60
51029;DHT22;37054;52.054;8.600;2023-11-21T14:40:24;12.30;66.90
51029;DHT22;37054;52.054;8.600;2023-11-21T14:42:51;12.30;66.80
51029;DHT22;37054;52.054;8.600;2023-11-21T14:45:22;12.20;66.20
51029;DHT22;37054;52.054;8.600;2023-11-21T14:47:51;12.20;66.00
51029;DHT22;37054;52.054;8.600;2023-11-21T14:50:32;12.20;65.80
51029;DHT22;37054;52.054;8.600;2023-11-21T14:53:06;12.10;66.30
51029;DHT22;37054;52.054;8.600;2023-11-21T14:55:33;12.10;66.50
51029;DHT22;37054;52.054;8.600;2023-11-21T14:58:08;12.10;66.70
51029;DHT22;37054;52.054;8.600;2023-11-21T15:00:38;12.00;66.30
51029;DHT22;37054;52.054;8.600;2023-11-21T15:03:10;12.00;66.30
51029;DHT22;37054;52.054;8.600;2023-11-21T15:05:46;11.90;67.00
51029;DHT22;37054;52.054;8.600;2023-11-21T15:08:14;11.90;67.10
51029;DHT22;37054;52.054;8.600;2023-11-21T15:10:49;11.90;67.10
51029;DHT22;37054;52.054;8.600;2023-11-21T15:13:19;11.90;66.90
51029;DHT22;37054;52.054;8.600;2023-11-21T15:15:45;11.80;66.80
51029;DHT22;37054;52.054;8.600;2023-11-21T15:18:11;11.90;67.60
51029;DHT22;37054;52.054;8.600;2023-11-21T15:20:40;11.90;66.50
51029;DHT22;37054;52.054;8.600;2023-11-21T15:23:06;11.80;66.60
51029;DHT22;37054;52.054;8.600;2023-11-21T15:25:32;11.80;66.90
51029;DHT22;37054;52.054;8.600;2023-11-21T15:27:58;11.80;66.80
51029;DHT22;37054;52.054;8.600;2023-11-21T15:30:25;11.70;67.00
51029;DHT22;37054;52.054;8.600;2023-11-21T15:32:51;11.70;66.90
51029;DHT22;37054;52.054;8.600;2023-11-21T15:35:18;11.70;67.00
51029;DHT22;37054;52.054;8.600;2023-11-21T15:37:44;11.60;67.20
51029;DHT22;37054;52.054;8.600;2023-11-21T15:40:11;11.50;67.60